Time;durP1;ratioP1;P1;durP2;ratioP2;P2;SDS_P1;SDS_P2;PMS_P1;PMS_P2;Temp;Humidity;BMP_temperature;BMP_pressure;BME280_temperature;BME280_humidity;BME280_pressure;Samples;Min_cycle;Max_cycle;Signal;HPM_P1;HPM_P2
2023/06/28 08:57:16;;;;;;;13.70;5.03;;;;;;;18.03;100.00;101642.53;5109919;27;20785;-67
2023/06/28 08:59:42;;;;;;;11.63;4.63;;;;;;;18.08;100.00;101639.84;5110326;28;20035;-68
2023/06/28 09:02:17;;;;;;;10.63;4.57;;;;;;;18.18;100.00;101637.22;5105396;28;20382;-68
2023/06/28 09:04:44;;;;;;;11.77;4.95;;;;;;;18.20;100.00;101642.44;5110412;28;20028;-68
2023/06/28 09:07:09;;;;;;;9.75;4.80;;;;;;;18.27;100.00;101637.59;5109766;28;20501;-68
2023/06/28 09:09:37;;;;;;;12.25;5.07;;;;;;;18.34;100.00;101642.84;5108881;28;20063;-68
2023/06/28 09:12:02;;;;;;;13.07;4.82;;;;;;;18.34;100.00;101629.16;5107992;28;20127;-68
2023/06/28 09:14:28;;;;;;;11.30;4.38;;;;;;;18.40;100.00;101626.22;5109888;28;20506;-68
2023/06/28 09:16:54;;;;;;;10.82;4.43;;;;;;;18.41;100.00;101625.13;5113049;28;20023;-68
2023/06/28 09:19:20;;;;;;;13.80;4.03;;;;;;;18.44;100.00;101620.22;5112683;27;20039;-67
2023/06/28 09:21:45;;;;;;;13.43;4.47;;;;;;;18.45;100.00;101625.44;5106194;28;20054;-68
2023/06/28 09:24:12;;;;;;;10.80;4.32;;;;;;;18.48;100.00;101621.34;5097989;28;20466;-68
2023/06/28 09:26:40;;;;;;;12.13;3.92;;;;;;;18.48;100.00;101621.34;5109844;28;20454;-67
2023/06/28 09:29:10;;;;;;;9.43;3.95;;;;;;;18.51;100.00;101618.94;5109511;28;20042;-68
2023/06/28 09:31:44;;;;;;;10.88;4.22;;;;;;;18.55;100.00;101621.97;5109887;28;20023;-68
2023/06/28 09:34:09;;;;;;;12.30;4.20;;;;;;;18.64;100.00;101625.06;5114524;28;20034;-68
2023/06/28 09:36:38;;;;;;;11.40;4.40;;;;;;;18.70;100.00;101624.84;5108570;28;20374;-68
2023/06/28 09:39:04;;;;;;;11.80;4.30;;;;;;;18.76;99.98;101628.47;5106558;28;20103;-70
2023/06/28 09:41:41;;;;;;;10.32;3.70;;;;;;;18.89;100.00;101639.03;5109465;28;20045;-68
2023/06/28 09:44:09;;;;;;;9.32;3.90;;;;;;;19.01;100.00;101629.78;5109594;28;20038;-71
2023/06/28 09:46:34;;;;;;;8.38;3.55;;;;;;;19.03;100.00;101628.44;5109568;28;20028;-69
2023/06/28 09:49:00;;;;;;;10.48;3.90;;;;;;;19.12;96.83;101620.53;5105910;28;20084;-68
2023/06/28 09:51:25;;;;;;;8.68;3.80;;;;;;;19.19;100.00;101623.88;5089656;28;20064;-67
2023/06/28 09:53:53;;;;;;;10.77;4.05;;;;;;;19.24;100.00;101629.41;5099359;28;20023;-67
2023/06/28 09:56:32;;;;;;;8.90;3.63;;;;;;;19.29;91.53;101618.47;5092793;28;20048;-68
2023/06/28 09:58:59;;;;;;;11.07;4.13;;;;;;;19.35;94.05;101618.50;5088129;28;20036;-68
2023/06/28 10:01:25;;;;;;;10.65;3.92;;;;;;;19.45;90.41;101613.06;5085955;28;20024;-67
2023/06/28 10:03:51;;;;;;;10.80;3.60;;;;;;;19.58;88.53;101612.59;5100857;28;20020;-67
2023/06/28 10:06:17;;;;;;;10.45;3.50;;;;;;;19.75;88.02;101614.31;5093696;27;20054;-67
2023/06/28 10:08:43;;;;;;;9.75;3.33;;;;;;;19.83;78.81;101616.56;5074827;28;20024;-68
2023/06/28 10:11:12;;;;;;;9.57;3.00;;;;;;;19.86;78.50;101613.28;5075154;28;20032;-69
2023/06/28 10:13:41;;;;;;;11.75;3.38;;;;;;;19.95;77.36;101617.16;5081265;28;20056;-69
2023/06/28 10:16:21;;;;;;;9.93;3.88;;;;;;;20.03;77.88;101607.56;5075341;28;20037;-70
2023/06/28 10:18:47;;;;;;;10.48;3.20;;;;;;;20.06;75.71;101606.19;5084892;28;20068;-68
2023/06/28 10:21:13;;;;;;;13.88;3.53;;;;;;;20.14;76.79;101614.75;5095157;28;20074;-68
2023/06/28 10:23:40;;;;;;;10.52;3.80;;;;;;;20.15;82.74;101610.06;5093608;28;20028;-68
2023/06/28 10:26:08;;;;;;;6.90;3.00;;;;;;;20.21;75.56;101611.72;5095289;28;20039;-70
2023/06/28 10:28:34;;;;;;;7.32;3.20;;;;;;;20.19;71.91;101614.75;5084822;28;20408;-68
2023/06/28 10:31:00;;;;;;;7.25;2.85;;;;;;;20.18;70.02;101606.78;5074906;28;20029;-67
2023/06/28 10:33:31;;;;;;;7.40;3.03;;;;;;;20.18;71.16;101610.38;5074675;28;20383;-67
2023/06/28 10:35:57;;;;;;;;;;;;;;;20.34;74.02;101613.94;5075163;28;20430;-68
2023/06/28 10:38:23;;;;;;;8.05;3.83;;;;;;;20.37;71.04;101607.09;5081421;28;19920;-68
2023/06/28 10:40:48;;;;;;;8.40;2.95;;;;;;;20.46;75.24;101605.44;5094718;28;20028;-69
2023/06/28 10:43:24;;;;;;;10.00;3.05;;;;;;;20.53;70.83;101602.41;5094421;28;20028;-69
2023/06/28 10:45:51;;;;;;;10.23;3.20;;;;;;;20.51;69.29;101608.19;5094908;28;20417;-69
2023/06/28 10:48:21;;;;;;;10.07;3.08;;;;;;;20.53;69.59;101600.50;5088419;28;20032;-68
2023/06/28 10:50:47;;;;;;;11.07;3.50;;;;;;;20.59;68.92;101606.81;5088272;28;20094;-68
2023/06/28 10:53:23;;;;;;;9.80;3.58;;;;;;;20.68;70.76;101607.13;5092449;28;20039;-69
2023/06/28 10:56:08;;;;;;;8.73;3.20;;;;;;;20.87;70.02;101605.47;5093564;28;20116;-68
2023/06/28 10:58:39;;;;;;;8.98;3.13;;;;;;;20.96;67.99;101603.00;5085795;28;20032;-68
2023/06/28 11:01:07;;;;;;;9.07;3.80;;;;;;;21.04;68.43;101596.13;5070722;28;20028;-68
2023/06/28 11:03:42;;;;;;;10.85;3.97;;;;;;;21.14;66.69;101600.78;5072932;28;20456;-68
2023/06/28 11:06:10;;;;;;;10.63;4.18;;;;;;;21.22;66.64;101589.19;5074263;28;20050;-67
2023/06/28 11:08:40;;;;;;;8.45;3.30;;;;;;;21.33;69.72;101590.84;5073273;28;20438;-67
2023/06/28 11:11:07;;;;;;;11.67;3.90;;;;;;;21.30;65.92;101583.09;5076208;28;20029;-67
2023/06/28 11:13:44;;;;;;;7.10;3.40;;;;;;;21.48;69.29;101575.34;5094065;28;20032;-70
2023/06/28 11:16:16;;;;;;;7.82;3.70;;;;;;;21.54;65.59;101585.28;5092930;28;20069;-68
2023/06/28 11:18:41;;;;;;;9.20;4.10;;;;;;;21.59;64.87;101586.09;5090577;28;20047;-68
2023/06/28 11:21:16;;;;;;;10.00;4.07;;;;;;;21.67;64.87;101589.38;5093873;28;20467;-69
2023/06/28 11:23:43;;;;;;;11.50;4.35;;;;;;;21.80;65.39;101590.66;5092802;28;20028;-69
2023/06/28 11:26:12;;;;;;;8.15;3.53;;;;;;;21.90;64.54;101574.09;5092797;28;20028;-69
2023/06/28 11:28:50;;;;;;;9.20;3.40;;;;;;;21.92;66.20;101574.63;5084695;28;20115;-70
2023/06/28 11:31:19;;;;;;;9.65;4.07;;;;;;;21.99;65.29;101572.38;5081462;28;20103;-70
2023/06/28 11:33:44;;;;;;;9.95;4.30;;;;;;;21.95;63.07;101571.28;5092217;28;20615;-69
2023/06/28 11:36:12;;;;;;;12.32;4.15;;;;;;;21.96;64.91;101581.22;5093896;28;20028;-69
2023/06/28 11:38:39;;;;;;;12.70;4.28;;;;;;;22.01;63.69;101577.59;5086454;28;20051;-70
2023/06/28 11:41:05;;;;;;;9.45;4.30;;;;;;;22.02;63.67;101579.25;5091179;28;20089;-68
2023/06/28 11:43:30;;;;;;;12.02;4.45;;;;;;;22.07;65.04;101577.31;5093561;28;20032;-69
2023/06/28 11:45:56;;;;;;;11.60;4.97;;;;;;;22.06;63.80;101575.66;5093722;28;20233;-70
2023/06/28 11:48:22;;;;;;;12.40;5.45;;;;;;;22.07;63.42;101577.31;5088104;28;20028;-70
2023/06/28 11:50:58;;;;;;;11.38;5.13;;;;;;;22.19;64.28;101579.69;5081093;28;20382;-68
2023/06/28 11:53:25;;;;;;;9.52;4.43;;;;;;;22.23;64.75;101574.44;5081438;28;20528;-67
2023/06/28 11:55:54;;;;;;;8.90;4.47;;;;;;;22.23;63.67;101568.94;5080335;28;20045;-68
2023/06/28 11:58:36;;;;;;;12.98;4.18;;;;;;;22.35;66.88;101568.59;5085774;28;20032;-68
2023/06/28 12:01:07;;;;;;;10.07;4.60;;;;;;;22.39;66.38;101572.41;5084544;28;20039;-68
2023/06/28 12:03:34;;;;;;;9.35;4.85;;;;;;;22.38;65.02;101576.31;5083105;28;20051;-66
2023/06/28 12:06:02;;;;;;;10.55;5.30;;;;;;;22.32;63.70;101572.75;5084634;28;20466;-67
2023/06/28 12:08:36;;;;;;;13.43;5.13;;;;;;;22.33;65.62;101573.56;5078304;28;20028;-68
2023/06/28 12:11:08;;;;;;;11.10;5.10;;;;;;;22.36;65.77;101571.06;5076903;28;20463;-68
2023/06/28 12:13:33;;;;;;;13.68;5.97;;;;;;;22.40;64.67;101569.38;5072342;28;20081;-67
2023/06/28 12:16:11;;;;;;;13.00;5.53;;;;;;;22.52;65.78;101569.00;5072853;28;20115;-66
2023/06/28 12:18:57;;;;;;;12.63;6.18;;;;;;;22.67;66.69;101572.75;5072299;28;20574;-67
2023/06/28 12:21:23;;;;;;;13.27;6.93;;;;;;;22.67;64.15;101561.72;5072725;28;20028;-67
2023/06/28 12:23:50;;;;;;;14.77;8.93;;;;;;;22.61;63.06;101556.22;5072523;28;20496;-67
2023/06/28 12:26:15;;;;;;;15.38;7.55;;;;;;;22.61;64.03;101563.69;5072840;28;20028;-67
2023/06/28 12:28:42;;;;;;;12.63;7.57;;;;;;;22.62;64.51;101559.84;5071922;28;20051;-67
2023/06/28 12:31:09;;;;;;;13.05;7.10;;;;;;;22.68;66.16;101555.06;5102690;28;20082;-67
2023/06/28 12:33:35;;;;;;;11.20;6.28;;;;;;;22.83;67.52;101563.22;5072508;28;20043;-67
2023/06/28 12:36:00;;;;;;;16.25;8.30;;;;;;;22.74;63.45;101551.19;5072575;28;20033;-67
2023/06/28 12:38:26;;;;;;;15.15;8.07;;;;;;;22.80;64.70;101553.59;5077950;28;20028;-66
2023/06/28 12:40:51;;;;;;;12.82;6.68;;;;;;;22.92;65.11;101549.63;5092598;28;20129;-66
2023/06/28 12:43:21;;;;;;;12.68;6.85;;;;;;;23.01;67.20;101543.16;5092500;28;20150;-67
2023/06/28 12:45:50;;;;;;;13.27;8.25;;;;;;;23.01;63.64;101545.13;5092763;28;20028;-67
2023/06/28 12:48:17;;;;;;;14.57;8.30;;;;;;;22.99;63.59;101536.28;5087103;28;20033;-66
2023/06/28 12:50:44;;;;;;;15.73;8.45;;;;;;;23.03;64.34;101545.63;5088933;28;20032;-66
2023/06/28 12:53:09;;;;;;;12.80;8.38;;;;;;;22.98;62.99;101545.69;5092660;28;20051;-67
2023/06/28 12:55:35;;;;;;;13.63;8.15;;;;;;;23.03;65.45;101545.63;5091225;28;20478;-66
2023/06/28 12:58:00;;;;;;;14.20;8.63;;;;;;;22.97;63.29;101544.84;5088413;28;20032;-68
2023/06/28 13:00:25;;;;;;;15.13;9.27;;;;;;;22.89;63.59;101547.41;5070034;28;20031;-67
2023/06/28 13:02:50;;;;;;;13.93;8.07;;;;;;;22.93;65.36;101540.22;5071032;28;20028;-68
2023/06/28 13:05:16;;;;;;;19.42;9.52;;;;;;;23.01;66.29;101540.41;5072747;28;20040;-68
2023/06/28 13:07:41;;;;;;;17.45;9.05;;;;;;;23.00;64.69;101537.94;5072141;28;20144;-68
2023/06/28 13:10:09;;;;;;;17.25;10.65;;;;;;;22.98;65.98;101546.50;5073469;28;20025;-67
2023/06/28 13:12:34;;;;;;;17.85;11.07;;;;;;;22.88;64.89;101546.59;5072056;28;20159;-68
2023/06/28 13:15:00;;;;;;;16.88;10.30;;;;;;;22.88;65.93;101549.38;5072220;28;20066;-68
2023/06/28 13:17:25;;;;;;;18.60;9.75;;;;;;;22.89;66.56;101530.88;5071764;28;20032;-67
2023/06/28 13:19:50;;;;;;;15.70;9.63;;;;;;;22.94;67.06;101531.63;5071817;28;20040;-68
2023/06/28 13:22:16;;;;;;;18.58;10.48;;;;;;;23.00;65.52;101530.47;5090879;28;20032;-68
2023/06/28 13:24:41;;;;;;;17.45;10.82;;;;;;;23.07;66.16;101532.06;5092207;28;20032;-67
2023/06/28 13:27:06;;;;;;;13.65;9.85;;;;;;;23.18;66.73;101534.44;5092685;28;20038;-68
2023/06/28 13:29:32;;;;;;;19.45;10.82;;;;;;;23.27;64.33;101526.34;5074089;28;20039;-68
2023/06/28 13:31:57;;;;;;;17.58;10.38;;;;;;;23.46;65.19;101523.63;5072092;28;20060;-68
2023/06/28 13:34:22;;;;;;;20.30;12.00;;;;;;;23.56;63.49;101532.91;5072171;28;20060;-68
2023/06/28 13:36:47;;;;;;;17.25;10.20;;;;;;;23.63;62.64;101534.16;5070708;28;20032;-68
2023/06/28 13:39:13;;;;;;;15.98;10.55;;;;;;;23.62;62.73;101537.22;5070889;28;20472;-67
2023/06/28 13:41:39;;;;;;;15.20;11.02;;;;;;;23.55;64.76;101529.28;5085419;28;20063;-68
2023/06/28 13:44:04;;;;;;;20.15;11.02;;;;;;;23.49;63.98;101534.09;5094751;28;20031;-68
2023/06/28 13:46:30;;;;;;;17.10;10.65;;;;;;;23.41;64.79;101536.66;5081294;28;20032;-67
2023/06/28 13:48:55;;;;;;;19.90;11.57;;;;;;;23.24;63.78;101543.50;5079728;28;20123;-66
2023/06/28 13:51:20;;;;;;;17.15;10.55;;;;;;;23.14;65.61;101536.16;5079200;28;20033;-66
2023/06/28 13:53:46;;;;;;;18.25;11.48;;;;;;;23.03;66.34;101537.34;5081619;28;20383;-66
2023/06/28 13:56:11;;;;;;;16.92;11.15;;;;;;;22.94;67.46;101528.06;5081708;28;20172;-67
2023/06/28 13:58:38;;;;;;;18.70;10.27;;;;;;;22.83;67.79;101539.22;5082632;28;20112;-66
2023/06/28 14:01:03;;;;;;;18.50;11.52;;;;;;;22.72;68.79;101536.84;5080406;28;20476;-66
2023/06/28 14:03:28;;;;;;;20.38;11.00;;;;;;;22.66;70.72;101538.81;5089953;28;20040;-66
2023/06/28 14:05:54;;;;;;;19.48;11.77;;;;;;;22.60;70.92;101542.72;5095683;28;20403;-66
2023/06/28 14:08:20;;;;;;;18.52;11.20;;;;;;;22.50;71.82;101542.84;5094302;28;20063;-67
2023/06/28 14:10:46;;;;;;;18.75;11.75;;;;;;;22.41;72.71;101553.66;5082604;28;20113;-66
2023/06/28 14:13:11;;;;;;;17.50;11.43;;;;;;;22.34;74.27;101545.72;5074928;28;20039;-66
2023/06/28 14:15:36;;;;;;;18.95;11.93;;;;;;;22.32;77.04;101545.19;5073628;28;20434;-66
2023/06/28 14:18:02;;;;;;;18.88;12.27;;;;;;;22.30;77.93;101541.88;5075483;28;20365;-66
2023/06/28 14:20:27;;;;;;;26.50;13.93;;;;;;;22.30;77.77;101541.88;5074740;28;20056;-66
2023/06/28 14:22:53;;;;;;;20.90;15.23;;;;;;;22.23;78.10;101542.19;5076423;28;20499;-67
2023/06/28 14:25:19;;;;;;;23.55;14.75;;;;;;;22.23;80.08;101536.66;5074559;28;20028;-67
2023/06/28 14:27:44;;;;;;;23.13;14.68;;;;;;;22.22;78.90;101536.94;5086447;28;20059;-68
2023/06/28 14:30:10;;;;;;;26.75;15.32;;;;;;;22.21;80.79;101543.56;5084489;28;20495;-69
2023/06/28 14:32:35;;;;;;;24.40;16.10;;;;;;;22.17;81.32;101535.06;5094909;28;20063;-68
2023/06/28 14:35:01;;;;;;;22.52;16.42;;;;;;;22.11;82.14;101533.44;5085198;28;20531;-66
2023/06/28 14:37:26;;;;;;;31.23;16.40;;;;;;;22.11;83.47;101531.50;5074659;28;20101;-68
2023/06/28 14:39:51;;;;;;;23.85;16.08;;;;;;;22.12;84.74;101530.41;5083338;28;20028;-67
2023/06/28 14:42:17;;;;;;;24.58;16.50;;;;;;;22.08;84.27;101529.31;5094149;28;20039;-69
2023/06/28 14:44:42;;;;;;;24.88;16.73;;;;;;;22.07;86.07;101533.22;5092630;28;20024;-72
2023/06/28 14:47:07;;;;;;;25.63;16.58;;;;;;;22.05;84.71;101523.56;5087243;28;20032;-69
2023/06/28 14:49:33;;;;;;;27.60;16.48;;;;;;;22.03;87.85;101532.13;5086630;28;20533;-67
2023/06/28 14:51:58;;;;;;;27.35;16.52;;;;;;;22.02;89.27;101527.72;5080242;28;20056;-68
2023/06/28 14:54:24;;;;;;;25.90;17.00;;;;;;;22.06;89.79;101525.22;5074132;28;20391;-68
2023/06/28 14:56:49;;;;;;;25.23;16.67;;;;;;;22.07;90.11;101524.94;5073721;28;20045;-66
2023/06/28 14:59:14;;;;;;;28.90;16.80;;;;;;;22.07;88.89;101522.19;5074470;28;20020;-69
2023/06/28 15:01:40;;;;;;;28.85;17.23;;;;;;;22.09;88.81;101519.16;5071809;28;20078;-68
2023/06/28 15:04:05;;;;;;;23.35;16.63;;;;;;;22.09;85.72;101514.44;5073979;28;20399;-67
2023/06/28 15:06:30;;;;;;;27.90;17.48;;;;;;;22.12;84.77;101513.06;5080351;28;20059;-70
2023/06/28 15:08:55;;;;;;;24.75;17.25;;;;;;;22.16;82.96;101518.81;5072719;28;20411;-68
2023/06/28 15:11:21;;;;;;;24.38;16.63;;;;;;;22.24;83.30;101518.22;5093521;28;20024;-70
2023/06/28 15:13:46;;;;;;;29.95;18.00;;;;;;;22.28;81.91;101514.59;5093802;28;20042;-67
2023/06/28 15:16:11;;;;;;;22.95;16.92;;;;;;;22.29;81.51;101518.16;5073826;28;20468;-68
2023/06/28 15:18:37;;;;;;;25.27;17.45;;;;;;;22.28;79.14;101517.34;5073838;28;20032;-73
2023/06/28 15:21:02;;;;;;;27.38;18.50;;;;;;;22.27;80.50;101515.69;5072628;28;20529;-69
2023/06/28 15:23:27;;;;;;;24.77;16.98;;;;;;;22.32;85.15;101516.78;5073568;28;20465;-67
2023/06/28 15:25:54;;;;;;;23.00;18.23;;;;;;;22.34;82.80;101509.06;5073335;28;20492;-70
2023/06/28 15:28:25;;;;;;;24.85;17.13;;;;;;;22.31;79.05;101510.44;5073842;28;20036;-75
2023/06/28 15:30:52;;;;;;;26.65;17.05;;;;;;;22.30;81.89;101503.28;5073491;28;20036;-70
2023/06/28 15:33:18;;;;;;;29.45;17.23;;;;;;;22.33;82.75;101501.88;5073738;28;20081;-74
2023/06/28 15:35:43;;;;;;;25.58;18.23;;;;;;;22.31;79.79;101507.69;5072465;28;20123;-69
2023/06/28 15:38:08;;;;;;;26.02;17.48;;;;;;;22.30;83.24;101509.59;5079225;28;20032;-67
2023/06/28 15:40:34;;;;;;;23.63;17.23;;;;;;;22.28;82.66;101509.06;5093333;28;20020;-65
2023/06/28 15:43:00;;;;;;;25.08;18.45;;;;;;;22.22;82.89;101507.47;5094827;28;20028;-67
2023/06/28 15:45:26;;;;;;;24.00;17.20;;;;;;;22.19;85.33;101501.69;5112377;28;20394;-67
2023/06/28 15:47:51;;;;;;;23.40;17.70;;;;;;;22.18;87.41;101500.88;5090470;28;20043;-68
2023/06/28 15:50:16;;;;;;;28.02;17.38;;;;;;;22.19;91.83;101501.69;5073539;28;20028;-68
2023/06/28 15:52:42;;;;;;;23.40;16.63;;;;;;;22.15;90.71;101500.59;5072632;28;20356;-67
2023/06/28 15:55:07;;;;;;;30.95;18.10;;;;;;;22.15;91.95;101503.38;5091513;28;20028;-67
2023/06/28 15:57:33;;;;;;;29.67;19.42;;;;;;;22.11;91.56;101492.91;5081516;28;20028;-67
2023/06/28 15:59:58;;;;;;;24.48;18.35;;;;;;;22.08;94.08;101495.44;5074601;28;20028;-68
2023/06/28 16:02:23;;;;;;;25.10;17.55;;;;;;;22.06;93.28;101500.44;5069933;28;20499;-67
2023/06/28 16:04:49;;;;;;;26.95;18.52;;;;;;;22.03;91.91;101501.81;5084606;28;20028;-67
2023/06/28 16:07:15;;;;;;;23.55;18.25;;;;;;;22.05;94.65;101491.31;5086857;28;20126;-66
